createdAt,value
2022-08-07T00:02:39.911Z,15.30
2022-08-07T00:04:30.175Z,15.20
2022-08-07T00:07:01.479Z,15.20
2022-08-07T00:09:35.418Z,15.10
2022-08-07T00:11:56.083Z,15.00
2022-08-07T00:14:20.860Z,14.90
2022-08-07T00:16:49.035Z,14.80
2022-08-07T00:19:21.735Z,14.80
2022-08-07T00:21:56.024Z,14.70
2022-08-07T00:24:13.068Z,14.60
2022-08-07T00:26:58.451Z,14.60
2022-08-07T00:29:09.791Z,14.60
2022-08-07T00:31:41.509Z,14.50
2022-08-07T00:34:05.017Z,14.60
2022-08-07T00:36:32.602Z,14.60
2022-08-07T00:39:01.608Z,14.50
2022-08-07T00:41:29.935Z,14.50
2022-08-07T00:43:59.403Z,14.50
2022-08-07T00:46:26.432Z,14.40
2022-08-07T00:48:54.016Z,14.40
2022-08-07T00:51:21.605Z,14.40
2022-08-07T00:53:50.411Z,14.30
2022-08-07T00:56:17.568Z,14.20
2022-08-07T00:58:46.893Z,14.20
2022-08-07T01:01:13.146Z,14.20
2022-08-07T01:03:56.980Z,14.00
2022-08-07T01:06:09.104Z,14.00
2022-08-07T01:08:36.717Z,14.00
2022-08-07T01:12:09.982Z,14.20
2022-08-07T01:13:35.287Z,14.20
2022-08-07T01:16:05.242Z,14.10
2022-08-07T01:18:27.102Z,14.10
2022-08-07T01:20:57.742Z,14.00
2022-08-07T01:23:34.696Z,14.00
2022-08-07T01:25:55.594Z,14.00
2022-08-07T01:28:18.256Z,13.90
2022-08-07T01:30:45.868Z,13.90
2022-08-07T01:33:14.223Z,13.70
2022-08-07T01:35:54.106Z,13.70
2022-08-07T01:38:09.448Z,13.70
2022-08-07T01:40:37.031Z,13.60
2022-08-07T01:43:04.655Z,13.60
2022-08-07T01:45:37.050Z,13.50
2022-08-07T01:48:19.976Z,13.40
2022-08-07T01:50:29.054Z,13.30
2022-08-07T01:52:55.779Z,13.30
2022-08-07T01:55:24.217Z,13.20
2022-08-07T01:58:06.743Z,13.10
2022-08-07T02:00:19.368Z,13.10
2022-08-07T02:03:18.819Z,13.10
2022-08-07T02:05:47.824Z,13.30
2022-08-07T02:07:53.798Z,13.20
2022-08-07T02:10:24.208Z,13.10
2022-08-07T02:12:52.589Z,13.20
2022-08-07T02:15:20.942Z,13.10
2022-08-07T02:17:49.762Z,13.10
2022-08-07T02:20:17.528Z,13.20
2022-08-07T02:22:45.627Z,13.20
2022-08-07T02:25:13.994Z,13.10
2022-08-07T02:27:41.499Z,12.90
2022-08-07T02:30:09.312Z,12.90
2022-08-07T02:32:39.497Z,12.80
2022-08-07T02:35:06.181Z,12.70
2022-08-07T02:37:34.137Z,12.70
2022-08-07T02:40:11.539Z,13.10
2022-08-07T02:42:28.895Z,13.10
2022-08-07T02:44:56.489Z,13.00
2022-08-07T02:47:24.860Z,12.80
2022-08-07T02:49:56.002Z,12.70
2022-08-07T02:52:21.419Z,12.70
2022-08-07T02:54:48.469Z,12.80
2022-08-07T02:57:16.840Z,12.70
2022-08-07T02:59:45.202Z,12.60
2022-08-07T03:02:12.843Z,12.60
2022-08-07T03:04:41.435Z,12.50
2022-08-07T03:07:10.602Z,12.50
2022-08-07T03:09:43.585Z,12.60
2022-08-07T03:12:05.073Z,12.60
2022-08-07T03:14:33.424Z,12.60
2022-08-07T03:17:01.019Z,12.60
2022-08-07T03:19:37.025Z,12.70
2022-08-07T03:21:57.012Z,12.70
2022-08-07T03:24:27.251Z,12.70
2022-08-07T03:26:59.201Z,12.60
2022-08-07T03:29:19.833Z,12.70
2022-08-07T03:31:49.705Z,12.60
2022-08-07T03:34:18.342Z,12.60
2022-08-07T03:36:43.403Z,12.50
2022-08-07T03:39:11.073Z,12.40
2022-08-07T03:41:42.410Z,12.30
2022-08-07T03:44:06.204Z,12.30
2022-08-07T03:46:34.556Z,12.20
2022-08-07T03:49:03.480Z,12.10
2022-08-07T03:51:30.676Z,12.10
2022-08-07T03:54:32.809Z,12.10
2022-08-07T03:56:32.725Z,12.10
2022-08-07T03:59:08.075Z,12.10
2022-08-07T04:01:22.560Z,12.10
2022-08-07T04:03:55.155Z,12.10
2022-08-07T04:06:37.442Z,12.10
2022-08-07T04:08:45.332Z,12.10
2022-08-07T04:12:21.487Z,12.10
2022-08-07T04:14:11.008Z,12.10
2022-08-07T04:16:10.882Z,12.10
2022-08-07T04:18:59.182Z,12.00
2022-08-07T04:21:04.897Z,12.00
2022-08-07T04:23:43.234Z,12.00
2022-08-07T04:26:00.123Z,12.30
2022-08-07T04:28:27.708Z,12.30
2022-08-07T04:30:58.650Z,12.20
2022-08-07T04:33:23.823Z,12.10
2022-08-07T04:35:51.465Z,12.10
2022-08-07T04:38:19.766Z,12.10
2022-08-07T04:40:52.616Z,12.10
2022-08-07T04:43:15.752Z,12.10
2022-08-07T04:46:00.436Z,12.10
2022-08-07T04:48:29.145Z,12.00
2022-08-07T04:51:12.109Z,12.00
2022-08-07T04:54:05.448Z,12.00
2022-08-07T04:58:11.835Z,12.00
2022-08-07T04:59:18.274Z,12.00
2022-08-07T05:01:44.913Z,12.10
2022-08-07T05:04:17.211Z,12.10
2022-08-07T05:06:53.033Z,12.20
2022-08-07T05:09:16.507Z,12.20
2022-08-07T05:11:58.923Z,12.80
2022-08-07T05:14:56.079Z,12.80
2022-08-07T05:16:44.017Z,12.80
2022-08-07T05:19:10.129Z,13.00
2022-08-07T05:22:00.365Z,13.00
2022-08-07T05:24:05.415Z,13.20
2022-08-07T05:26:33.000Z,13.20
2022-08-07T05:29:04.412Z,13.10
2022-08-07T05:31:35.067Z,13.10
2022-08-07T05:34:04.720Z,13.00
2022-08-07T05:36:30.510Z,13.00
2022-08-07T05:39:00.770Z,13.00
2022-08-07T05:41:21.970Z,13.10
2022-08-07T05:44:12.752Z,13.40
2022-08-07T05:46:18.136Z,13.70
2022-08-07T05:48:59.591Z,14.00
2022-08-07T05:51:13.310Z,14.00
2022-08-07T05:54:11.954Z,14.20
2022-08-07T05:56:09.323Z,14.20
2022-08-07T05:58:37.493Z,14.30
2022-08-07T06:01:05.962Z,14.30
2022-08-07T06:03:34.264Z,14.30
2022-08-07T06:06:01.304Z,14.70
2022-08-07T06:08:30.916Z,14.60
2022-08-07T06:10:56.543Z,14.70
2022-08-07T06:14:11.644Z,15.10
2022-08-07T06:15:52.536Z,15.10
2022-08-07T06:18:20.130Z,15.20
2022-08-07T06:20:51.140Z,15.30
2022-08-07T06:23:46.558Z,15.30
2022-08-07T06:25:54.740Z,15.40
2022-08-07T06:28:14.051Z,15.50
2022-08-07T06:30:45.379Z,15.60
2022-08-07T06:33:10.037Z,15.70
2022-08-07T06:35:45.733Z,15.70
2022-08-07T06:38:04.634Z,16.20
2022-08-07T06:40:35.049Z,16.10
2022-08-07T06:42:59.821Z,16.30
2022-08-07T06:45:28.496Z,16.50
2022-08-07T06:47:58.372Z,16.50
2022-08-07T06:50:23.684Z,16.60
2022-08-07T06:52:52.888Z,16.70
2022-08-07T06:55:32.699Z,16.80
2022-08-07T06:57:49.955Z,16.90
2022-08-07T07:00:18.295Z,17.00
2022-08-07T07:02:53.793Z,17.40
2022-08-07T07:05:12.612Z,17.40
2022-08-07T07:08:00.107Z,17.80
2022-08-07T07:10:06.753Z,18.00
2022-08-07T07:12:48.424Z,18.10
2022-08-07T07:15:08.940Z,18.10
2022-08-07T07:17:38.641Z,18.20
2022-08-07T07:20:03.360Z,18.20
2022-08-07T07:22:36.745Z,18.30
2022-08-07T07:25:14.484Z,18.30
2022-08-07T07:27:27.051Z,18.40
2022-08-07T07:29:56.681Z,18.40
2022-08-07T07:32:22.192Z,18.50
2022-08-07T07:34:49.776Z,18.60
2022-08-07T07:37:21.820Z,18.70
2022-08-07T07:39:54.444Z,18.80
2022-08-07T07:42:19.712Z,18.80
2022-08-07T07:44:42.634Z,19.00
2022-08-07T07:47:17.514Z,19.10
2022-08-07T07:50:33.160Z,19.10
2022-08-07T07:52:06.309Z,19.20
2022-08-07T07:54:33.904Z,19.30
2022-08-07T07:57:01.577Z,19.50
2022-08-07T07:59:52.828Z,19.60
2022-08-07T08:02:04.940Z,19.70
2022-08-07T08:04:25.926Z,20.00
2022-08-07T08:06:53.213Z,20.10
2022-08-07T08:09:20.333Z,20.30
2022-08-07T08:12:03.082Z,20.30
2022-08-07T08:14:17.110Z,20.40
2022-08-07T08:16:50.288Z,20.50
2022-08-07T08:20:16.245Z,20.50
2022-08-07T08:22:03.062Z,20.50
2022-08-07T08:24:47.202Z,20.70
2022-08-07T08:27:20.471Z,20.80
2022-08-07T08:29:54.165Z,20.80
2022-08-07T08:32:18.482Z,20.90
2022-08-07T08:34:38.472Z,21.00
2022-08-07T08:37:09.902Z,21.10
2022-08-07T08:39:39.398Z,21.20
2022-08-07T08:42:04.042Z,21.30
2022-08-07T08:44:45.642Z,21.40
2022-08-07T08:47:11.408Z,21.70
2022-08-07T08:50:04.657Z,21.70
2022-08-07T08:52:20.547Z,21.70
2022-08-07T08:55:07.558Z,21.80
2022-08-07T08:57:47.381Z,21.80
2022-08-07T09:00:15.151Z,21.90
2022-08-07T09:02:49.353Z,22.00
2022-08-07T09:05:37.487Z,22.40
2022-08-07T09:08:05.601Z,22.30
2022-08-07T09:10:52.060Z,22.50
2022-08-07T09:13:37.251Z,22.40
2022-08-07T09:16:23.408Z,22.50
2022-08-07T09:18:32.184Z,22.50
2022-08-07T09:21:01.047Z,22.60
2022-08-07T09:24:55.261Z,22.60
2022-08-07T09:26:22.601Z,22.70
2022-08-07T09:30:05.813Z,22.80
2022-08-07T09:31:26.491Z,22.90
2022-08-07T09:33:58.199Z,23.10
2022-08-07T09:36:35.895Z,23.20
2022-08-07T09:39:52.671Z,23.20
2022-08-07T09:42:03.079Z,23.20
2022-08-07T09:44:32.882Z,23.30
2022-08-07T09:47:51.270Z,23.40
2022-08-07T09:50:02.932Z,23.40
2022-08-07T09:52:34.228Z,23.40
2022-08-07T09:55:16.934Z,23.50
2022-08-07T09:57:47.228Z,23.60
2022-08-07T10:00:14.933Z,23.90
2022-08-07T10:04:05.462Z,23.90
2022-08-07T10:06:00.766Z,24.00
2022-08-07T10:08:34.764Z,24.30
2022-08-07T10:12:01.012Z,24.30
2022-08-07T10:14:06.964Z,24.40
2022-08-07T10:16:46.885Z,24.40
2022-08-07T10:19:26.127Z,24.40
2022-08-07T10:22:33.724Z,24.40
2022-08-07T10:24:59.492Z,24.40
2022-08-07T10:27:46.563Z,24.50
2022-08-07T10:30:06.687Z,24.40
2022-08-07T10:33:04.844Z,24.60
2022-08-07T10:35:55.783Z,24.80
2022-08-07T10:38:35.710Z,24.80
2022-08-07T10:41:10.417Z,24.90
2022-08-07T10:44:07.333Z,25.10
2022-08-07T10:46:27.768Z,25.10
2022-08-07T10:48:56.132Z,25.10
2022-08-07T10:51:39.291Z,25.20
2022-08-07T10:54:03.301Z,25.20
2022-08-07T10:56:55.115Z,25.30
2022-08-07T10:59:47.617Z,25.30
2022-08-07T11:02:33.513Z,25.60
2022-08-07T11:04:47.839Z,25.60
2022-08-07T11:07:58.630Z,25.70
2022-08-07T11:10:07.096Z,25.70
2022-08-07T11:12:35.555Z,25.70
2022-08-07T11:15:14.804Z,25.80
2022-08-07T11:17:54.685Z,25.80
2022-08-07T11:20:43.625Z,25.90
2022-08-07T11:23:41.606Z,26.00
2022-08-07T11:26:15.016Z,26.00
2022-08-07T11:29:05.749Z,25.90
2022-08-07T11:31:49.846Z,25.90
2022-08-07T11:34:42.542Z,25.90
2022-08-07T11:37:24.253Z,25.90
2022-08-07T11:40:01.341Z,25.90
2022-08-07T11:42:29.672Z,26.20
2022-08-07T11:44:59.498Z,26.10
2022-08-07T11:47:56.643Z,26.10
2022-08-07T11:50:32.782Z,26.20
2022-08-07T11:53:05.690Z,26.10
2022-08-07T11:56:13.983Z,26.10
2022-08-07T11:58:50.838Z,26.10
2022-08-07T12:01:24.201Z,26.10
2022-08-07T12:04:03.877Z,26.10
2022-08-07T12:06:57.213Z,26.10
2022-08-07T12:09:25.314Z,26.10
2022-08-07T12:12:13.614Z,26.10
2022-08-07T12:15:03.147Z,26.30
2022-08-07T12:17:39.868Z,26.30
2022-08-07T12:20:20.859Z,26.40
2022-08-07T12:22:58.598Z,26.70
2022-08-07T12:26:05.528Z,26.70
2022-08-07T12:28:31.264Z,27.00
2022-08-07T12:30:55.366Z,27.00
2022-08-07T12:33:23.123Z,27.00
2022-08-07T12:35:57.747Z,27.00
2022-08-07T12:38:38.637Z,27.20
2022-08-07T12:40:48.511Z,27.30
2022-08-07T12:44:02.623Z,27.20
2022-08-07T12:45:57.440Z,27.20
2022-08-07T12:48:59.370Z,27.00
2022-08-07T12:51:33.369Z,27.00
2022-08-07T12:54:37.188Z,27.00
2022-08-07T12:56:50.915Z,27.00
2022-08-07T12:59:20.317Z,26.90
2022-08-07T13:01:45.647Z,27.10
2022-08-07T13:04:49.054Z,27.10
2022-08-07T13:08:12.002Z,27.10
2022-08-07T13:10:28.678Z,27.10
2022-08-07T13:13:02.016Z,27.10
2022-08-07T13:15:53.229Z,27.30
2022-08-07T13:18:31.833Z,27.30
2022-08-07T13:21:07.944Z,27.30
2022-08-07T13:24:00.635Z,27.40
2022-08-07T13:26:15.893Z,27.40
2022-08-07T13:28:42.629Z,27.50
2022-08-07T13:31:22.019Z,27.70
2022-08-07T13:34:34.221Z,27.70
2022-08-07T13:36:28.864Z,27.60
2022-08-07T13:38:56.399Z,27.60
2022-08-07T13:41:24.067Z,27.70
2022-08-07T13:43:52.649Z,27.60
2022-08-07T13:46:24.925Z,27.70
2022-08-07T13:48:51.879Z,27.80
2022-08-07T13:51:27.737Z,27.90
2022-08-07T13:53:59.732Z,27.80
2022-08-07T13:56:12.253Z,27.90
2022-08-07T13:58:57.404Z,27.90
2022-08-07T14:01:25.931Z,28.00
2022-08-07T14:04:07.569Z,28.10
2022-08-07T14:06:21.761Z,28.00
2022-08-07T14:08:53.725Z,28.10
2022-08-07T14:11:21.589Z,28.10
2022-08-07T14:13:55.904Z,28.10
2022-08-07T14:16:30.988Z,28.10
2022-08-07T14:18:57.124Z,28.10
2022-08-07T14:22:02.372Z,28.30
2022-08-07T14:24:03.760Z,28.30
2022-08-07T14:26:36.609Z,28.50
2022-08-07T14:29:10.641Z,28.60
2022-08-07T14:31:42.856Z,28.60
2022-08-07T14:34:00.198Z,28.80
2022-08-07T14:36:28.600Z,29.00
2022-08-07T14:38:56.192Z,29.00
2022-08-07T14:41:33.891Z,29.00
2022-08-07T14:43:56.962Z,29.10
2022-08-07T14:48:49.610Z,29.00
2022-08-07T14:51:20.238Z,29.10
2022-08-07T14:54:08.750Z,29.10
2022-08-07T14:56:15.406Z,29.30
2022-08-07T14:58:51.170Z,29.70
2022-08-07T15:03:52.767Z,29.90
2022-08-07T15:06:12.296Z,30.10
2022-08-07T15:08:47.740Z,30.10
2022-08-07T15:11:07.456Z,30.10
2022-08-07T15:13:36.739Z,30.10
2022-08-07T15:16:11.122Z,30.20
2022-08-07T15:18:36.177Z,30.20
2022-08-07T15:25:12.960Z,30.30
2022-08-07T15:25:59.431Z,30.30
2022-08-07T15:28:34.697Z,30.50
2022-08-07T15:31:05.374Z,30.50
2022-08-07T15:33:23.019Z,30.60
2022-08-07T15:38:30.899Z,30.70
2022-08-07T15:43:53.869Z,30.80
2022-08-07T15:45:56.503Z,31.00
2022-08-07T15:53:25.882Z,31.30
2022-08-07T15:56:02.889Z,31.50
2022-08-07T15:58:24.503Z,31.90
2022-08-07T16:00:52.091Z,31.90
2022-08-07T16:03:46.728Z,32.20
2022-08-07T16:05:48.077Z,32.20
2022-08-07T16:08:31.292Z,32.20
2022-08-07T16:10:47.347Z,32.30
2022-08-07T16:13:57.631Z,32.40
2022-08-07T16:15:57.418Z,32.40
2022-08-07T16:18:50.021Z,32.40
2022-08-07T16:22:01.994Z,32.40
2022-08-07T16:24:03.431Z,32.40
2022-08-07T16:26:33.586Z,32.40
2022-08-07T16:30:08.382Z,32.40
2022-08-07T16:31:57.577Z,32.40
2022-08-07T16:34:26.518Z,32.40
2022-08-07T16:37:02.361Z,32.50
2022-08-07T16:39:49.470Z,32.50
2022-08-07T16:42:30.777Z,32.40
2022-08-07T16:47:55.923Z,32.60
2022-08-07T16:50:52.714Z,32.90
2022-08-07T16:54:02.798Z,33.00
2022-08-07T16:55:47.918Z,32.90
2022-08-07T16:58:23.053Z,33.00
2022-08-07T17:01:34.619Z,33.00
2022-08-07T17:04:24.482Z,32.90
2022-08-07T17:07:13.544Z,33.00
2022-08-07T17:10:06.160Z,33.00
2022-08-07T17:12:56.034Z,32.90
2022-08-07T17:15:43.586Z,32.90
2022-08-07T17:17:54.135Z,32.80
2022-08-07T17:20:33.875Z,32.60
2022-08-07T17:23:32.430Z,32.50
2022-08-07T17:25:54.308Z,32.50
2022-08-07T17:28:49.657Z,32.30
2022-08-07T17:31:16.418Z,32.20
2022-08-07T17:34:15.187Z,32.10
2022-08-07T17:36:20.390Z,32.00
2022-08-07T17:38:44.360Z,31.80
2022-08-07T17:42:02.005Z,31.50
2022-08-07T17:44:02.212Z,31.30
2022-08-07T17:46:12.397Z,31.00
2022-08-07T17:48:58.756Z,30.70
2022-08-07T17:51:59.806Z,30.30
2022-08-07T17:54:14.937Z,30.10
2022-08-07T17:56:49.799Z,29.80
2022-08-07T17:59:35.677Z,29.40
2022-08-07T18:02:02.278Z,29.00
2022-08-07T18:04:48.751Z,28.30
2022-08-07T18:07:20.967Z,28.30
2022-08-07T18:10:04.716Z,27.90
2022-08-07T18:12:19.722Z,27.60
2022-08-07T18:14:46.059Z,27.40
2022-08-07T18:18:33.067Z,27.20
2022-08-07T18:21:06.590Z,26.90
2022-08-07T18:22:43.932Z,27.00
2022-08-07T18:25:24.143Z,26.80
2022-08-07T18:27:54.185Z,26.60
2022-08-07T18:30:33.050Z,26.20
2022-08-07T18:33:15.382Z,26.20
2022-08-07T18:35:50.343Z,26.00
2022-08-07T18:38:58.569Z,25.90
2022-08-07T18:41:08.150Z,25.70
2022-08-07T18:43:37.296Z,25.50
2022-08-07T18:46:25.839Z,25.50
2022-08-07T18:50:33.055Z,25.40
2022-08-07T18:52:25.462Z,25.50
2022-08-07T18:54:30.611Z,25.70
2022-08-07T18:56:38.817Z,25.50
2022-08-07T18:59:47.457Z,25.30
2022-08-07T19:02:20.106Z,25.30
2022-08-07T19:05:15.061Z,25.10
2022-08-07T19:07:34.990Z,24.90
2022-08-07T19:10:12.099Z,24.70
2022-08-07T19:12:59.283Z,24.60
2022-08-07T19:16:03.229Z,24.60
2022-08-07T19:17:58.996Z,24.40
2022-08-07T19:20:29.122Z,24.30
2022-08-07T19:22:47.418Z,24.20
2022-08-07T19:26:22.809Z,24.20
2022-08-07T19:28:57.061Z,24.10
2022-08-07T19:31:04.783Z,23.90
2022-08-07T19:32:44.837Z,23.90
2022-08-07T19:35:07.060Z,23.70
2022-08-07T19:37:55.489Z,23.70
2022-08-07T19:40:05.592Z,23.50
2022-08-07T19:42:40.512Z,23.20
2022-08-07T19:45:08.473Z,23.20
2022-08-07T19:47:29.305Z,23.10
2022-08-07T19:50:02.785Z,23.00
2022-08-07T19:52:25.110Z,23.00
2022-08-07T19:54:56.194Z,22.90
2022-08-07T19:58:01.509Z,23.00
2022-08-07T19:59:48.688Z,22.90
2022-08-07T20:02:19.511Z,22.90
2022-08-07T20:04:46.294Z,22.70
2022-08-07T20:07:11.482Z,22.60
2022-08-07T20:10:37.042Z,22.40
2022-08-07T20:12:32.165Z,22.30
2022-08-07T20:14:36.991Z,22.20
2022-08-07T20:17:05.352Z,22.00
2022-08-07T20:19:48.088Z,21.90
2022-08-07T20:22:01.484Z,21.80
2022-08-07T20:24:31.648Z,21.80
2022-08-07T20:26:59.257Z,22.00
2022-08-07T20:29:47.792Z,21.90
2022-08-07T20:31:55.326Z,21.70
2022-08-07T20:34:49.444Z,21.50
2022-08-07T20:36:53.990Z,21.50
2022-08-07T20:40:01.377Z,21.40
2022-08-07T20:41:49.157Z,21.30
2022-08-07T20:44:16.783Z,21.30
2022-08-07T20:46:45.218Z,21.20
2022-08-07T20:49:59.168Z,21.10
2022-08-07T20:51:40.364Z,21.30
2022-08-07T20:54:08.601Z,21.20
2022-08-07T20:56:34.770Z,21.40
2022-08-07T20:59:02.766Z,21.30
2022-08-07T21:01:45.994Z,21.00
2022-08-07T21:04:19.550Z,21.00
2022-08-07T21:06:28.149Z,21.10
2022-08-07T21:08:58.470Z,21.00
2022-08-07T21:11:28.856Z,21.00
2022-08-07T21:14:16.665Z,20.80
2022-08-07T21:16:21.280Z,20.80
2022-08-07T21:18:50.583Z,20.90
2022-08-07T21:21:17.256Z,20.70
2022-08-07T21:23:51.368Z,20.60
2022-08-07T21:26:32.116Z,20.50
2022-08-07T21:28:59.730Z,20.50
2022-08-07T21:32:10.764Z,20.40
2022-08-07T21:34:31.990Z,20.30
2022-08-07T21:36:52.623Z,20.20
2022-08-07T21:39:46.706Z,20.10
2022-08-07T21:44:51.170Z,20.00
2022-08-07T21:47:34.693Z,19.90
2022-08-07T21:50:08.553Z,19.80
2022-08-07T21:53:07.594Z,19.80
2022-08-07T21:55:37.052Z,19.80
2022-08-07T21:58:36.261Z,19.60
2022-08-07T22:01:03.902Z,19.60
2022-08-07T22:03:34.373Z,19.50
2022-08-07T22:06:01.996Z,19.40
2022-08-07T22:08:39.033Z,19.30
2022-08-07T22:11:06.676Z,19.30
2022-08-07T22:13:51.900Z,19.30
2022-08-07T22:16:43.041Z,19.50
2022-08-07T22:18:44.190Z,19.40
2022-08-07T22:21:11.773Z,19.40
2022-08-07T22:23:40.189Z,19.30
2022-08-07T22:26:10.799Z,19.20
2022-08-07T22:28:48.355Z,19.10
2022-08-07T22:31:58.894Z,19.30
2022-08-07T22:33:57.677Z,19.30
2022-08-07T22:36:46.509Z,19.20
2022-08-07T22:39:35.506Z,19.20
2022-08-07T22:42:18.964Z,19.10
2022-08-07T22:44:34.421Z,19.00
2022-08-07T22:47:11.185Z,19.00
2022-08-07T22:49:51.633Z,18.90
2022-08-07T22:52:11.621Z,18.90
2022-08-07T22:55:17.688Z,18.70
2022-08-07T22:57:59.633Z,18.70
2022-08-07T23:00:32.711Z,18.60
2022-08-07T23:03:18.461Z,18.60
2022-08-07T23:06:09.433Z,18.50
2022-08-07T23:08:34.612Z,18.50
2022-08-07T23:11:13.367Z,18.50
2022-08-07T23:14:14.982Z,18.40
2022-08-07T23:16:46.888Z,18.30
2022-08-07T23:19:48.212Z,18.30
2022-08-07T23:22:28.489Z,18.30
2022-08-07T23:25:14.459Z,18.20
2022-08-07T23:28:21.816Z,18.20
2022-08-07T23:30:46.715Z,18.20
2022-08-07T23:34:19.920Z,18.20
2022-08-07T23:35:43.627Z,18.20
2022-08-07T23:38:36.192Z,18.20
2022-08-07T23:40:56.965Z,18.10
2022-08-07T23:43:37.818Z,18.10
2022-08-07T23:46:33.823Z,18.00
2022-08-07T23:49:42.148Z,17.90
2022-08-07T23:53:01.820Z,17.80
2022-08-07T23:54:36.022Z,17.70
2022-08-07T23:57:14.281Z,17.70
